sensor_id;sensor_type;location;lat;lon;timestamp;temperature;humidity
16263;DHT22;8239;48.594;8.598;2022-09-09T00:00:25;10.50;99.90
16263;DHT22;8239;48.594;8.598;2022-09-09T00:03:02;10.50;99.90
16263;DHT22;8239;48.594;8.598;2022-09-09T00:05:38;10.60;99.90
16263;DHT22;8239;48.594;8.598;2022-09-09T00:08:19;10.60;99.90
16263;DHT22;8239;48.594;8.598;2022-09-09T00:10:51;10.70;99.90
16263;DHT22;8239;48.594;8.598;2022-09-09T00:13:24;10.70;99.90
16263;DHT22;8239;48.594;8.598;2022-09-09T00:15:59;10.70;99.90
16263;DHT22;8239;48.594;8.598;2022-09-09T00:18:31;10.70;99.90
16263;DHT22;8239;48.594;8.598;2022-09-09T00:21:06;10.80;99.90
16263;DHT22;8239;48.594;8.598;2022-09-09T00:23:37;10.80;99.90
16263;DHT22;8239;48.594;8.598;2022-09-09T00:26:09;10.80;99.90
16263;DHT22;8239;48.594;8.598;2022-09-09T00:28:41;10.90;99.90
16263;DHT22;8239;48.594;8.598;2022-09-09T00:31:13;10.80;99.90
16263;DHT22;8239;48.594;8.598;2022-09-09T00:33:40;10.80;99.90
16263;DHT22;8239;48.594;8.598;2022-09-09T00:36:13;10.80;99.90
16263;DHT22;8239;48.594;8.598;2022-09-09T00:38:45;10.80;99.90
16263;DHT22;8239;48.594;8.598;2022-09-09T00:41:20;10.80;99.90
16263;DHT22;8239;48.594;8.598;2022-09-09T00:43:56;10.80;99.90
16263;DHT22;8239;48.594;8.598;2022-09-09T00:46:47;10.80;99.90
16263;DHT22;8239;48.594;8.598;2022-09-09T00:49:27;10.70;99.90
16263;DHT22;8239;48.594;8.598;2022-09-09T00:52:07;10.70;99.90
16263;DHT22;8239;48.594;8.598;2022-09-09T00:54:45;10.70;99.90
16263;DHT22;8239;48.594;8.598;2022-09-09T00:57:23;10.70;99.90
16263;DHT22;8239;48.594;8.598;2022-09-09T00:59:58;10.70;99.90
16263;DHT22;8239;48.594;8.598;2022-09-09T01:02:33;10.60;99.90
16263;DHT22;8239;48.594;8.598;2022-09-09T01:05:07;10.60;99.90
16263;DHT22;8239;48.594;8.598;2022-09-09T01:07:40;10.50;99.90
16263;DHT22;8239;48.594;8.598;2022-09-09T01:10:17;10.60;99.90
16263;DHT22;8239;48.594;8.598;2022-09-09T01:12:49;10.50;99.90
16263;DHT22;8239;48.594;8.598;2022-09-09T01:15:22;10.50;99.90
16263;DHT22;8239;48.594;8.598;2022-09-09T01:17:55;10.60;99.90
16263;DHT22;8239;48.594;8.598;2022-09-09T01:20:27;10.60;99.90
16263;DHT22;8239;48.594;8.598;2022-09-09T01:26:13;10.60;99.90
16263;DHT22;8239;48.594;8.598;2022-09-09T01:28:44;10.70;99.90
16263;DHT22;8239;48.594;8.598;2022-09-09T01:31:16;10.70;99.90
16263;DHT22;8239;48.594;8.598;2022-09-09T01:33:44;10.70;99.90
16263;DHT22;8239;48.594;8.598;2022-09-09T01:36:13;10.70;99.90
16263;DHT22;8239;48.594;8.598;2022-09-09T01:38:41;10.60;99.90
16263;DHT22;8239;48.594;8.598;2022-09-09T01:41:10;10.60;99.90
16263;DHT22;8239;48.594;8.598;2022-09-09T01:43:37;10.50;99.90
16263;DHT22;8239;48.594;8.598;2022-09-09T01:46:04;10.40;99.90
16263;DHT22;8239;48.594;8.598;2022-09-09T01:48:31;10.40;99.90
16263;DHT22;8239;48.594;8.598;2022-09-09T01:50:58;10.30;99.90
16263;DHT22;8239;48.594;8.598;2022-09-09T01:53:25;10.30;99.90
16263;DHT22;8239;48.594;8.598;2022-09-09T01:56:02;10.30;99.90
16263;DHT22;8239;48.594;8.598;2022-09-09T01:58:41;10.30;99.90
16263;DHT22;8239;48.594;8.598;2022-09-09T02:01:17;10.20;99.90
16263;DHT22;8239;48.594;8.598;2022-09-09T02:03:52;10.20;99.90
16263;DHT22;8239;48.594;8.598;2022-09-09T02:06:26;10.20;99.90
16263;DHT22;8239;48.594;8.598;2022-09-09T02:08:56;10.20;99.90
16263;DHT22;8239;48.594;8.598;2022-09-09T02:11:26;10.10;99.90
16263;DHT22;8239;48.594;8.598;2022-09-09T02:13:58;10.00;99.90
16263;DHT22;8239;48.594;8.598;2022-09-09T02:16:30;10.00;99.90
16263;DHT22;8239;48.594;8.598;2022-09-09T02:19:02;9.90;99.90
16263;DHT22;8239;48.594;8.598;2022-09-09T02:21:33;9.90;99.90
16263;DHT22;8239;48.594;8.598;2022-09-09T02:24:04;9.90;99.90
16263;DHT22;8239;48.594;8.598;2022-09-09T02:26:34;9.90;99.90
16263;DHT22;8239;48.594;8.598;2022-09-09T02:29:05;9.90;99.90
16263;DHT22;8239;48.594;8.598;2022-09-09T02:31:34;9.90;99.90
16263;DHT22;8239;48.594;8.598;2022-09-09T02:34:03;10.00;99.90
16263;DHT22;8239;48.594;8.598;2022-09-09T02:36:33;10.00;99.90
16263;DHT22;8239;48.594;8.598;2022-09-09T02:39:01;10.10;99.90
16263;DHT22;8239;48.594;8.598;2022-09-09T02:41:31;10.20;99.90
16263;DHT22;8239;48.594;8.598;2022-09-09T02:43:59;10.20;99.90
16263;DHT22;8239;48.594;8.598;2022-09-09T02:46:48;10.20;99.90
16263;DHT22;8239;48.594;8.598;2022-09-09T02:49:21;10.20;99.90
16263;DHT22;8239;48.594;8.598;2022-09-09T02:51:56;10.10;99.90
16263;DHT22;8239;48.594;8.598;2022-09-09T02:54:28;10.00;99.90
16263;DHT22;8239;48.594;8.598;2022-09-09T02:57:01;9.90;99.90
16263;DHT22;8239;48.594;8.598;2022-09-09T02:59:30;9.80;99.90
16263;DHT22;8239;48.594;8.598;2022-09-09T03:01:59;9.70;99.90
16263;DHT22;8239;48.594;8.598;2022-09-09T03:04:26;9.70;99.90
16263;DHT22;8239;48.594;8.598;2022-09-09T03:06:53;9.70;99.90
16263;DHT22;8239;48.594;8.598;2022-09-09T03:09:20;9.60;99.90
16263;DHT22;8239;48.594;8.598;2022-09-09T03:11:47;9.60;99.90
16263;DHT22;8239;48.594;8.598;2022-09-09T03:14:15;9.60;99.90
16263;DHT22;8239;48.594;8.598;2022-09-09T03:16:42;9.60;99.90
16263;DHT22;8239;48.594;8.598;2022-09-09T03:19:10;9.60;99.90
16263;DHT22;8239;48.594;8.598;2022-09-09T03:21:37;9.50;99.90
16263;DHT22;8239;48.594;8.598;2022-09-09T03:24:04;9.50;99.90
16263;DHT22;8239;48.594;8.598;2022-09-09T03:26:32;9.40;99.90
16263;DHT22;8239;48.594;8.598;2022-09-09T03:28:59;9.40;99.90
16263;DHT22;8239;48.594;8.598;2022-09-09T03:31:26;9.30;99.90
16263;DHT22;8239;48.594;8.598;2022-09-09T03:33:55;9.30;99.90
16263;DHT22;8239;48.594;8.598;2022-09-09T03:36:25;9.30;99.90
16263;DHT22;8239;48.594;8.598;2022-09-09T03:38:53;9.30;99.90
16263;DHT22;8239;48.594;8.598;2022-09-09T03:41:21;9.40;99.90
16263;DHT22;8239;48.594;8.598;2022-09-09T03:43:49;9.40;99.90
16263;DHT22;8239;48.594;8.598;2022-09-09T03:46:16;9.50;99.90
16263;DHT22;8239;48.594;8.598;2022-09-09T03:48:43;9.70;99.90
16263;DHT22;8239;48.594;8.598;2022-09-09T03:51:11;9.80;99.90
16263;DHT22;8239;48.594;8.598;2022-09-09T03:53:39;9.90;99.90
16263;DHT22;8239;48.594;8.598;2022-09-09T03:56:07;10.00;99.90
16263;DHT22;8239;48.594;8.598;2022-09-09T03:58:35;10.10;99.90
16263;DHT22;8239;48.594;8.598;2022-09-09T04:01:04;10.10;99.90
16263;DHT22;8239;48.594;8.598;2022-09-09T04:03:31;10.10;99.90
16263;DHT22;8239;48.594;8.598;2022-09-09T04:06:00;10.10;99.90
16263;DHT22;8239;48.594;8.598;2022-09-09T04:08:27;10.10;99.90
16263;DHT22;8239;48.594;8.598;2022-09-09T04:10:58;10.10;99.90
16263;DHT22;8239;48.594;8.598;2022-09-09T04:13:28;10.10;99.90
16263;DHT22;8239;48.594;8.598;2022-09-09T04:15:57;10.00;99.90
16263;DHT22;8239;48.594;8.598;2022-09-09T04:18:24;10.00;99.90
16263;DHT22;8239;48.594;8.598;2022-09-09T04:20:52;10.00;99.90
16263;DHT22;8239;48.594;8.598;2022-09-09T04:23:20;10.00;99.90
16263;DHT22;8239;48.594;8.598;2022-09-09T04:25:51;10.00;99.90
16263;DHT22;8239;48.594;8.598;2022-09-09T04:28:21;10.00;99.90
16263;DHT22;8239;48.594;8.598;2022-09-09T04:30:49;10.00;99.90
16263;DHT22;8239;48.594;8.598;2022-09-09T04:33:16;9.90;99.90
16263;DHT22;8239;48.594;8.598;2022-09-09T04:35:44;10.00;99.90
16263;DHT22;8239;48.594;8.598;2022-09-09T04:38:12;9.90;99.90
16263;DHT22;8239;48.594;8.598;2022-09-09T04:40:41;9.90;99.90
16263;DHT22;8239;48.594;8.598;2022-09-09T04:43:08;9.90;99.90
16263;DHT22;8239;48.594;8.598;2022-09-09T04:45:37;9.90;99.90
16263;DHT22;8239;48.594;8.598;2022-09-09T04:48:06;9.80;99.90
16263;DHT22;8239;48.594;8.598;2022-09-09T04:50:33;9.80;99.90
16263;DHT22;8239;48.594;8.598;2022-09-09T04:53:00;9.80;99.90
16263;DHT22;8239;48.594;8.598;2022-09-09T04:55:28;9.80;99.90
16263;DHT22;8239;48.594;8.598;2022-09-09T04:57:55;9.80;99.90
16263;DHT22;8239;48.594;8.598;2022-09-09T05:00:23;9.80;99.90
16263;DHT22;8239;48.594;8.598;2022-09-09T05:02:51;9.80;99.90
16263;DHT22;8239;48.594;8.598;2022-09-09T05:05:18;9.80;99.90
16263;DHT22;8239;48.594;8.598;2022-09-09T05:07:45;9.80;99.90
16263;DHT22;8239;48.594;8.598;2022-09-09T05:10:14;9.80;99.90
16263;DHT22;8239;48.594;8.598;2022-09-09T05:12:42;9.80;99.90
16263;DHT22;8239;48.594;8.598;2022-09-09T05:15:09;9.90;99.90
16263;DHT22;8239;48.594;8.598;2022-09-09T05:17:37;9.90;99.90
16263;DHT22;8239;48.594;8.598;2022-09-09T05:20:06;10.00;99.90
16263;DHT22;8239;48.594;8.598;2022-09-09T05:22:33;10.10;99.90
16263;DHT22;8239;48.594;8.598;2022-09-09T05:25:00;10.10;99.90
16263;DHT22;8239;48.594;8.598;2022-09-09T05:27:27;10.20;99.90
16263;DHT22;8239;48.594;8.598;2022-09-09T05:29:57;10.20;99.90
16263;DHT22;8239;48.594;8.598;2022-09-09T05:32:24;10.30;99.90
16263;DHT22;8239;48.594;8.598;2022-09-09T05:34:51;10.30;99.90
16263;DHT22;8239;48.594;8.598;2022-09-09T05:37:19;10.50;99.90
16263;DHT22;8239;48.594;8.598;2022-09-09T05:39:46;10.50;99.90
16263;DHT22;8239;48.594;8.598;2022-09-09T05:42:13;10.60;99.90
16263;DHT22;8239;48.594;8.598;2022-09-09T05:44:40;10.70;99.90
16263;DHT22;8239;48.594;8.598;2022-09-09T05:47:08;10.70;99.90
16263;DHT22;8239;48.594;8.598;2022-09-09T05:49:35;10.70;99.90
16263;DHT22;8239;48.594;8.598;2022-09-09T05:52:02;10.70;99.90
16263;DHT22;8239;48.594;8.598;2022-09-09T05:54:31;10.70;99.90
16263;DHT22;8239;48.594;8.598;2022-09-09T05:56:58;10.70;99.90
16263;DHT22;8239;48.594;8.598;2022-09-09T05:59:25;10.70;99.90
16263;DHT22;8239;48.594;8.598;2022-09-09T06:01:52;10.80;99.90
16263;DHT22;8239;48.594;8.598;2022-09-09T06:04:19;10.90;99.90
16263;DHT22;8239;48.594;8.598;2022-09-09T06:06:47;11.10;99.90
16263;DHT22;8239;48.594;8.598;2022-09-09T06:09:14;11.20;99.90
16263;DHT22;8239;48.594;8.598;2022-09-09T06:11:43;11.40;99.90
16263;DHT22;8239;48.594;8.598;2022-09-09T06:14:11;11.50;99.90
16263;DHT22;8239;48.594;8.598;2022-09-09T06:16:38;11.60;99.90
16263;DHT22;8239;48.594;8.598;2022-09-09T06:19:09;11.80;99.90
16263;DHT22;8239;48.594;8.598;2022-09-09T06:21:37;11.90;99.90
16263;DHT22;8239;48.594;8.598;2022-09-09T06:24:06;12.00;99.90
16263;DHT22;8239;48.594;8.598;2022-09-09T06:26:35;12.30;99.90
16263;DHT22;8239;48.594;8.598;2022-09-09T06:29:04;12.40;99.90
16263;DHT22;8239;48.594;8.598;2022-09-09T06:31:33;12.60;99.90
16263;DHT22;8239;48.594;8.598;2022-09-09T06:34:04;12.60;99.90
16263;DHT22;8239;48.594;8.598;2022-09-09T06:36:33;12.80;99.90
16263;DHT22;8239;48.594;8.598;2022-09-09T06:39:00;13.10;99.90
16263;DHT22;8239;48.594;8.598;2022-09-09T06:41:30;13.40;99.90
16263;DHT22;8239;48.594;8.598;2022-09-09T06:43:58;14.10;99.90
16263;DHT22;8239;48.594;8.598;2022-09-09T06:46:28;14.60;99.90
16263;DHT22;8239;48.594;8.598;2022-09-09T06:48:58;14.80;99.90
16263;DHT22;8239;48.594;8.598;2022-09-09T06:51:27;15.00;99.90
16263;DHT22;8239;48.594;8.598;2022-09-09T06:53:56;15.20;99.90
16263;DHT22;8239;48.594;8.598;2022-09-09T06:56:25;15.30;99.90
16263;DHT22;8239;48.594;8.598;2022-09-09T06:58:54;15.90;99.90
16263;DHT22;8239;48.594;8.598;2022-09-09T07:01:22;16.60;99.90
16263;DHT22;8239;48.594;8.598;2022-09-09T07:03:53;17.00;99.90
16263;DHT22;8239;48.594;8.598;2022-09-09T07:06:22;17.30;99.90
16263;DHT22;8239;48.594;8.598;2022-09-09T07:08:51;17.40;99.90
16263;DHT22;8239;48.594;8.598;2022-09-09T07:11:19;17.30;99.90
16263;DHT22;8239;48.594;8.598;2022-09-09T07:13:49;17.70;99.90
16263;DHT22;8239;48.594;8.598;2022-09-09T07:16:17;18.30;99.90
16263;DHT22;8239;48.594;8.598;2022-09-09T07:18:50;18.70;99.90
16263;DHT22;8239;48.594;8.598;2022-09-09T07:21:18;19.10;99.90
16263;DHT22;8239;48.594;8.598;2022-09-09T07:23:46;19.90;99.90
16263;DHT22;8239;48.594;8.598;2022-09-09T07:26:15;20.80;99.90
16263;DHT22;8239;48.594;8.598;2022-09-09T07:28:42;21.20;99.90
16263;DHT22;8239;48.594;8.598;2022-09-09T07:31:14;21.00;99.80
16263;DHT22;8239;48.594;8.598;2022-09-09T07:33:43;20.90;98.00
16263;DHT22;8239;48.594;8.598;2022-09-09T07:36:14;20.70;97.60
16263;DHT22;8239;48.594;8.598;2022-09-09T07:38:42;20.60;98.00
16263;DHT22;8239;48.594;8.598;2022-09-09T07:41:12;21.30;99.90
16263;DHT22;8239;48.594;8.598;2022-09-09T07:43:40;23.00;99.00
16263;DHT22;8239;48.594;8.598;2022-09-09T07:46:08;25.00;92.90
16263;DHT22;8239;48.594;8.598;2022-09-09T07:48:35;26.20;83.20
16263;DHT22;8239;48.594;8.598;2022-09-09T07:51:07;26.30;73.80
16263;DHT22;8239;48.594;8.598;2022-09-09T07:53:38;25.80;73.50
16263;DHT22;8239;48.594;8.598;2022-09-09T07:56:07;25.60;74.30
16263;DHT22;8239;48.594;8.598;2022-09-09T07:58:35;25.80;75.20
16263;DHT22;8239;48.594;8.598;2022-09-09T08:01:07;26.30;75.20
16263;DHT22;8239;48.594;8.598;2022-09-09T08:03:35;26.60;73.70
16263;DHT22;8239;48.594;8.598;2022-09-09T08:06:03;26.80;70.60
16263;DHT22;8239;48.594;8.598;2022-09-09T08:08:30;27.50;71.20
16263;DHT22;8239;48.594;8.598;2022-09-09T08:11:08;28.90;68.30
16263;DHT22;8239;48.594;8.598;2022-09-09T08:13:35;30.60;62.60
16263;DHT22;8239;48.594;8.598;2022-09-09T08:16:08;31.70;55.80
16263;DHT22;8239;48.594;8.598;2022-09-09T08:18:35;30.90;52.00
16263;DHT22;8239;48.594;8.598;2022-09-09T08:21:08;29.00;54.10
16263;DHT22;8239;48.594;8.598;2022-09-09T08:23:38;26.80;57.60
16263;DHT22;8239;48.594;8.598;2022-09-09T08:26:09;24.70;63.50
16263;DHT22;8239;48.594;8.598;2022-09-09T08:28:36;22.80;69.10
16263;DHT22;8239;48.594;8.598;2022-09-09T08:31:08;21.20;73.90
16263;DHT22;8239;48.594;8.598;2022-09-09T08:33:35;20.10;79.30
16263;DHT22;8239;48.594;8.598;2022-09-09T08:36:04;19.80;86.80
16263;DHT22;8239;48.594;8.598;2022-09-09T08:38:32;20.60;90.00
16263;DHT22;8239;48.594;8.598;2022-09-09T08:41:09;22.30;88.40
16263;DHT22;8239;48.594;8.598;2022-09-09T08:43:37;24.50;80.50
16263;DHT22;8239;48.594;8.598;2022-09-09T08:46:09;27.00;72.40
16263;DHT22;8239;48.594;8.598;2022-09-09T08:48:50;28.80;60.50
16263;DHT22;8239;48.594;8.598;2022-09-09T08:51:19;30.30;57.80
16263;DHT22;8239;48.594;8.598;2022-09-09T08:53:49;31.40;54.80
16263;DHT22;8239;48.594;8.598;2022-09-09T08:56:21;32.30;51.70
16263;DHT22;8239;48.594;8.598;2022-09-09T08:58:51;33.20;50.00
16263;DHT22;8239;48.594;8.598;2022-09-09T09:01:35;33.90;48.20
16263;DHT22;8239;48.594;8.598;2022-09-09T09:04:10;34.30;46.00
16263;DHT22;8239;48.594;8.598;2022-09-09T09:06:50;34.70;45.20
16263;DHT22;8239;48.594;8.598;2022-09-09T09:09:25;34.90;43.00
16263;DHT22;8239;48.594;8.598;2022-09-09T09:12:00;34.90;43.20
16263;DHT22;8239;48.594;8.598;2022-09-09T09:14:29;35.10;43.60
16263;DHT22;8239;48.594;8.598;2022-09-09T09:17:01;35.50;42.80
16263;DHT22;8239;48.594;8.598;2022-09-09T09:19:30;35.80;41.80
16263;DHT22;8239;48.594;8.598;2022-09-09T09:22:04;36.00;39.70
16263;DHT22;8239;48.594;8.598;2022-09-09T09:24:42;36.20;39.30
16263;DHT22;8239;48.594;8.598;2022-09-09T09:27:16;36.50;39.70
16263;DHT22;8239;48.594;8.598;2022-09-09T09:29:46;35.90;37.60
16263;DHT22;8239;48.594;8.598;2022-09-09T09:32:17;35.40;39.30
16263;DHT22;8239;48.594;8.598;2022-09-09T09:34:49;35.30;39.50
16263;DHT22;8239;48.594;8.598;2022-09-09T09:37:20;35.30;39.10
16263;DHT22;8239;48.594;8.598;2022-09-09T09:39:49;34.90;38.30
16263;DHT22;8239;48.594;8.598;2022-09-09T09:42:19;34.80;37.60
16263;DHT22;8239;48.594;8.598;2022-09-09T09:44:46;34.10;37.80
16263;DHT22;8239;48.594;8.598;2022-09-09T09:47:15;33.20;39.30
16263;DHT22;8239;48.594;8.598;2022-09-09T09:49:51;32.20;41.00
16263;DHT22;8239;48.594;8.598;2022-09-09T09:52:23;32.10;41.40
16263;DHT22;8239;48.594;8.598;2022-09-09T09:54:51;32.50;40.80
16263;DHT22;8239;48.594;8.598;2022-09-09T09:57:25;32.50;40.60
16263;DHT22;8239;48.594;8.598;2022-09-09T10:00:02;31.70;41.10
16263;DHT22;8239;48.594;8.598;2022-09-09T10:02:38;30.60;42.10
16263;DHT22;8239;48.594;8.598;2022-09-09T10:05:13;29.10;43.80
16263;DHT22;8239;48.594;8.598;2022-09-09T10:07:41;27.60;45.90
16263;DHT22;8239;48.594;8.598;2022-09-09T10:10:15;26.10;47.50
16263;DHT22;8239;48.594;8.598;2022-09-09T10:12:53;24.70;51.70
16263;DHT22;8239;48.594;8.598;2022-09-09T10:15:31;23.50;51.90
16263;DHT22;8239;48.594;8.598;2022-09-09T10:18:05;22.50;55.10
16263;DHT22;8239;48.594;8.598;2022-09-09T10:20:42;21.50;57.60
16263;DHT22;8239;48.594;8.598;2022-09-09T10:23:24;20.80;59.70
16263;DHT22;8239;48.594;8.598;2022-09-09T10:26:07;20.10;61.70
16263;DHT22;8239;48.594;8.598;2022-09-09T10:29:11;19.50;64.10
16263;DHT22;8239;48.594;8.598;2022-09-09T10:31:50;18.80;66.30
16263;DHT22;8239;48.594;8.598;2022-09-09T10:34:27;18.30;69.30
16263;DHT22;8239;48.594;8.598;2022-09-09T10:36:58;17.80;71.70
16263;DHT22;8239;48.594;8.598;2022-09-09T10:39:35;17.30;75.10
16263;DHT22;8239;48.594;8.598;2022-09-09T10:42:05;16.80;79.90
16263;DHT22;8239;48.594;8.598;2022-09-09T10:44:46;16.30;84.60
16263;DHT22;8239;48.594;8.598;2022-09-09T10:47:32;15.90;90.00
16263;DHT22;8239;48.594;8.598;2022-09-09T10:50:18;15.50;93.30
16263;DHT22;8239;48.594;8.598;2022-09-09T10:52:57;15.10;97.00
16263;DHT22;8239;48.594;8.598;2022-09-09T10:55:33;14.80;99.90
16263;DHT22;8239;48.594;8.598;2022-09-09T10:58:03;14.70;99.90
16263;DHT22;8239;48.594;8.598;2022-09-09T11:00:38;14.70;99.90
16263;DHT22;8239;48.594;8.598;2022-09-09T11:03:09;15.00;99.90
16263;DHT22;8239;48.594;8.598;2022-09-09T11:05:44;15.60;99.90
16263;DHT22;8239;48.594;8.598;2022-09-09T11:08:18;16.40;99.90
16263;DHT22;8239;48.594;8.598;2022-09-09T11:10:49;17.50;99.90
16263;DHT22;8239;48.594;8.598;2022-09-09T11:13:30;18.70;99.90
16263;DHT22;8239;48.594;8.598;2022-09-09T11:16:08;19.50;99.90
16263;DHT22;8239;48.594;8.598;2022-09-09T11:18:39;20.00;98.20
16263;DHT22;8239;48.594;8.598;2022-09-09T11:21:14;20.30;95.40
16263;DHT22;8239;48.594;8.598;2022-09-09T11:23:47;20.40;93.80
16263;DHT22;8239;48.594;8.598;2022-09-09T11:26:18;20.30;92.00
16263;DHT22;8239;48.594;8.598;2022-09-09T11:28:56;20.20;91.50
16263;DHT22;8239;48.594;8.598;2022-09-09T11:31:41;20.10;91.70
16263;DHT22;8239;48.594;8.598;2022-09-09T11:34:19;20.20;91.10
16263;DHT22;8239;48.594;8.598;2022-09-09T11:37:04;20.90;91.70
16263;DHT22;8239;48.594;8.598;2022-09-09T11:39:44;22.40;91.70
16263;DHT22;8239;48.594;8.598;2022-09-09T11:42:19;24.00;83.10
16263;DHT22;8239;48.594;8.598;2022-09-09T11:44:47;25.40;77.30
16263;DHT22;8239;48.594;8.598;2022-09-09T11:47:22;26.60;69.80
16263;DHT22;8239;48.594;8.598;2022-09-09T11:49:55;27.50;61.90
16263;DHT22;8239;48.594;8.598;2022-09-09T11:52:24;27.90;58.80
16263;DHT22;8239;48.594;8.598;2022-09-09T11:54:54;27.40;57.40
16263;DHT22;8239;48.594;8.598;2022-09-09T11:57:26;26.80;58.50
16263;DHT22;8239;48.594;8.598;2022-09-09T11:59:57;26.40;58.60
16263;DHT22;8239;48.594;8.598;2022-09-09T12:02:28;26.40;60.40
16263;DHT22;8239;48.594;8.598;2022-09-09T12:05:00;26.00;58.20
16263;DHT22;8239;48.594;8.598;2022-09-09T12:07:34;25.50;59.40
16263;DHT22;8239;48.594;8.598;2022-09-09T12:10:05;25.20;60.00
16263;DHT22;8239;48.594;8.598;2022-09-09T12:12:45;25.10;60.20
16263;DHT22;8239;48.594;8.598;2022-09-09T12:15:27;25.00;61.10
16263;DHT22;8239;48.594;8.598;2022-09-09T12:17:57;25.50;61.70
16263;DHT22;8239;48.594;8.598;2022-09-09T12:20:33;26.30;60.50
16263;DHT22;8239;48.594;8.598;2022-09-09T12:23:14;27.40;59.30
16263;DHT22;8239;48.594;8.598;2022-09-09T12:28:45;27.60;52.30
16263;DHT22;8239;48.594;8.598;2022-09-09T12:31:20;27.70;53.80
16263;DHT22;8239;48.594;8.598;2022-09-09T12:33:51;27.90;49.90
16263;DHT22;8239;48.594;8.598;2022-09-09T12:36:20;28.10;50.40
16263;DHT22;8239;48.594;8.598;2022-09-09T12:38:48;28.40;49.30
16263;DHT22;8239;48.594;8.598;2022-09-09T12:41:21;28.60;47.90
16263;DHT22;8239;48.594;8.598;2022-09-09T12:43:49;28.90;47.90
16263;DHT22;8239;48.594;8.598;2022-09-09T12:46:27;29.10;46.30
16263;DHT22;8239;48.594;8.598;2022-09-09T12:48:59;28.80;46.40
16263;DHT22;8239;48.594;8.598;2022-09-09T12:51:28;28.80;47.00
16263;DHT22;8239;48.594;8.598;2022-09-09T12:53:55;28.90;46.20
16263;DHT22;8239;48.594;8.598;2022-09-09T12:56:24;29.00;44.50
16263;DHT22;8239;48.594;8.598;2022-09-09T12:58:54;29.00;44.50
16263;DHT22;8239;48.594;8.598;2022-09-09T13:01:24;29.10;44.50
16263;DHT22;8239;48.594;8.598;2022-09-09T13:03:52;28.90;43.90
16263;DHT22;8239;48.594;8.598;2022-09-09T13:06:23;28.50;43.60
16263;DHT22;8239;48.594;8.598;2022-09-09T13:08:50;27.90;46.20
16263;DHT22;8239;48.594;8.598;2022-09-09T13:11:21;27.80;46.70
16263;DHT22;8239;48.594;8.598;2022-09-09T13:13:51;28.20;46.90
16263;DHT22;8239;48.594;8.598;2022-09-09T13:16:21;28.60;45.90
16263;DHT22;8239;48.594;8.598;2022-09-09T13:18:48;28.90;46.00
16263;DHT22;8239;48.594;8.598;2022-09-09T13:21:16;29.00;43.50
16263;DHT22;8239;48.594;8.598;2022-09-09T13:23:49;29.00;45.80
16263;DHT22;8239;48.594;8.598;2022-09-09T13:26:24;29.40;43.80
16263;DHT22;8239;48.594;8.598;2022-09-09T13:28:51;29.80;43.40
16263;DHT22;8239;48.594;8.598;2022-09-09T13:31:21;30.10;42.60
16263;DHT22;8239;48.594;8.598;2022-09-09T13:33:48;30.30;40.80
16263;DHT22;8239;48.594;8.598;2022-09-09T13:36:15;30.30;42.10
16263;DHT22;8239;48.594;8.598;2022-09-09T13:38:55;30.50;40.50
16263;DHT22;8239;48.594;8.598;2022-09-09T13:41:28;30.30;41.10
16263;DHT22;8239;48.594;8.598;2022-09-09T13:43:56;29.80;40.50
16263;DHT22;8239;48.594;8.598;2022-09-09T13:46:27;29.40;41.70
16263;DHT22;8239;48.594;8.598;2022-09-09T13:48:56;28.90;41.20
16263;DHT22;8239;48.594;8.598;2022-09-09T13:51:33;28.00;42.10
16263;DHT22;8239;48.594;8.598;2022-09-09T13:54:01;27.70;43.40
16263;DHT22;8239;48.594;8.598;2022-09-09T13:56:28;27.70;43.70
16263;DHT22;8239;48.594;8.598;2022-09-09T13:58:55;27.80;42.80
16263;DHT22;8239;48.594;8.598;2022-09-09T14:01:22;27.90;43.00
16263;DHT22;8239;48.594;8.598;2022-09-09T14:03:49;28.10;42.70
16263;DHT22;8239;48.594;8.598;2022-09-09T14:06:18;28.20;41.80
16263;DHT22;8239;48.594;8.598;2022-09-09T14:08:47;28.40;41.50
16263;DHT22;8239;48.594;8.598;2022-09-09T14:11:17;29.00;42.30
16263;DHT22;8239;48.594;8.598;2022-09-09T14:13:44;29.30;41.80
16263;DHT22;8239;48.594;8.598;2022-09-09T14:16:12;29.80;42.20
16263;DHT22;8239;48.594;8.598;2022-09-09T14:18:39;30.30;39.90
16263;DHT22;8239;48.594;8.598;2022-09-09T14:21:06;30.60;39.70
16263;DHT22;8239;48.594;8.598;2022-09-09T14:23:34;30.60;38.50
16263;DHT22;8239;48.594;8.598;2022-09-09T14:26:02;29.90;38.30
16263;DHT22;8239;48.594;8.598;2022-09-09T14:28:30;29.40;40.00
16263;DHT22;8239;48.594;8.598;2022-09-09T14:30:59;28.50;40.60
16263;DHT22;8239;48.594;8.598;2022-09-09T14:33:26;27.70;42.60
16263;DHT22;8239;48.594;8.598;2022-09-09T14:35:56;27.80;43.60
16263;DHT22;8239;48.594;8.598;2022-09-09T14:38:23;28.30;43.90
16263;DHT22;8239;48.594;8.598;2022-09-09T14:40:50;28.80;43.20
16263;DHT22;8239;48.594;8.598;2022-09-09T14:43:17;29.10;41.80
16263;DHT22;8239;48.594;8.598;2022-09-09T14:45:47;29.20;42.50
16263;DHT22;8239;48.594;8.598;2022-09-09T14:48:16;29.40;41.30
16263;DHT22;8239;48.594;8.598;2022-09-09T14:50:43;29.50;40.20
16263;DHT22;8239;48.594;8.598;2022-09-09T14:53:10;29.40;40.40
16263;DHT22;8239;48.594;8.598;2022-09-09T14:55:37;29.40;40.50
16263;DHT22;8239;48.594;8.598;2022-09-09T14:58:04;28.70;41.30
16263;DHT22;8239;48.594;8.598;2022-09-09T15:00:32;27.30;42.40
16263;DHT22;8239;48.594;8.598;2022-09-09T15:03:00;26.20;44.40
16263;DHT22;8239;48.594;8.598;2022-09-09T15:05:27;25.50;46.60
16263;DHT22;8239;48.594;8.598;2022-09-09T15:07:54;25.80;47.50
16263;DHT22;8239;48.594;8.598;2022-09-09T15:10:22;26.60;46.60
16263;DHT22;8239;48.594;8.598;2022-09-09T15:12:49;27.60;44.30
16263;DHT22;8239;48.594;8.598;2022-09-09T15:15:15;27.70;43.10
16263;DHT22;8239;48.594;8.598;2022-09-09T15:17:42;26.80;43.30
16263;DHT22;8239;48.594;8.598;2022-09-09T15:20:11;25.50;45.20
16263;DHT22;8239;48.594;8.598;2022-09-09T15:22:38;24.20;47.30
16263;DHT22;8239;48.594;8.598;2022-09-09T15:25:06;23.10;47.80
16263;DHT22;8239;48.594;8.598;2022-09-09T15:27:33;22.20;50.40
16263;DHT22;8239;48.594;8.598;2022-09-09T15:30:01;21.40;51.60
16263;DHT22;8239;48.594;8.598;2022-09-09T15:32:28;20.80;52.60
16263;DHT22;8239;48.594;8.598;2022-09-09T15:34:55;20.40;53.90
16263;DHT22;8239;48.594;8.598;2022-09-09T15:37:24;20.10;55.00
16263;DHT22;8239;48.594;8.598;2022-09-09T15:39:51;19.90;55.40
16263;DHT22;8239;48.594;8.598;2022-09-09T15:42:17;19.70;56.40
16263;DHT22;8239;48.594;8.598;2022-09-09T15:44:44;19.50;57.00
16263;DHT22;8239;48.594;8.598;2022-09-09T15:47:12;19.40;57.60
16263;DHT22;8239;48.594;8.598;2022-09-09T15:49:40;19.20;58.00
16263;DHT22;8239;48.594;8.598;2022-09-09T15:52:09;19.10;59.60
16263;DHT22;8239;48.594;8.598;2022-09-09T15:54:38;18.90;60.80
16263;DHT22;8239;48.594;8.598;2022-09-09T15:57:07;18.70;62.20
16263;DHT22;8239;48.594;8.598;2022-09-09T15:59:34;18.90;65.60
16263;DHT22;8239;48.594;8.598;2022-09-09T16:02:02;19.90;64.70
16263;DHT22;8239;48.594;8.598;2022-09-09T16:04:30;20.90;63.10
16263;DHT22;8239;48.594;8.598;2022-09-09T16:06:58;22.10;60.50
16263;DHT22;8239;48.594;8.598;2022-09-09T16:09:26;23.00;57.50
16263;DHT22;8239;48.594;8.598;2022-09-09T16:11:56;23.20;55.20
16263;DHT22;8239;48.594;8.598;2022-09-09T16:14:24;23.70;56.30